Bookmark and Share
Track history (hours):
 

Sea-land Lightning

More information available from US FCC via Universal Licensing System.

Last reported at 2014-Apr-15 06:00 UTC. Time now 2014-Apr-19 14:45 UTC.
Position N 50°18' W 178°36'.

Type: Ship (hazmat cat A). MMSI: 303316000.

Wind from 270 at 24 knots

Waves 2.5 meters (8 feet), 5 second period

Barometer 995.0 mb
Air temperature 12.0 ° C
Visibility: greater than 5.4 NM
Dewpoint 8.3 ° C
Water temperature 3.0 ° C

NotesDate/timePositionNaut miles runAvg speedWind from/ knotsBaromVisibWave heightAir tempDewpointWater temp
2014-Apr-15 06:00N 50°18' W 178°36'   270 / 24995.0 5.4 2.512.0 8.3 3.0
2014-Apr-13 00:00N 46°12' E 155°12'23418.0 340 / 30999.0 5.4 3.0 1.0-1.6 1.0
2014-Apr-12 11:00N 44°30' E 150°12'21619.6 310 / 32996.5 5.4 3.0-0.0-2.9 1.0
2014-Apr-12 00:00N 42°42' E 145°54'53914.8 290 / 261006.010.8 2.0 2.0-0.5 1.0
2014-Apr-10 11:30N 34°55' E 140°10'2412.4
2014-Apr-10 09:33N 35°04' E 139°42'1313.0
2014-Apr-10 08:32N 35°17' E 139°45'8 8.4
2014-Apr-10 07:33N 35°24' E 139°41'0 0.1
2014-Apr-10 06:33N 35°24' E 139°41'0 0.0
2014-Apr-10 05:33N 35°24' E 139°41'0 0.3
2014-Apr-10 04:33N 35°24' E 139°41'6 6.4
2014-Apr-10 03:33N 35°18' E 139°44'1111.0
2014-Apr-10 02:33N 35°07' E 139°46'1312.9
2014-Apr-10 01:34N 34°55' E 139°41'441 9.6
2014-Apr-08 03:29N 34°02' E 130°50'1415.2
2014-Apr-08 02:33N 34°02' E 130°33'1616.1
2014-Apr-08 01:33N 33°53' E 130°17'1313.2
2014-Apr-08 00:33N 33°40' E 130°17'6 6.3
2014-Apr-07 23:32N 33°39' E 130°24'0 0.1
2014-Apr-07 22:32N 33°39' E 130°24'0 0.0
2014-Apr-07 21:33N 33°39' E 130°24'0 0.0
2014-Apr-07 20:32N 33°39' E 130°24'0 0.0
2014-Apr-07 19:33N 33°39' E 130°24'0 0.0
2014-Apr-07 17:30N 33°39' E 130°24'0 0.0
2014-Apr-07 16:33N 33°39' E 130°24'0 0.0
2014-Apr-07 15:33N 33°39' E 130°24'7 6.6
2014-Apr-07 14:33N 33°39' E 130°16'9 8.8
2014-Apr-07 13:34N 33°48' E 130°13'  

Dump ship's entire track history

sailing weather and tide predictions

Sea-land Lightning — WDB9986 — position and weather